sensor_id;sensor_type;location;lat;lon;timestamp;P1;durP1;ratioP1;P2;durP2;ratioP2
35022;SDS011;21214;44.912;8.204;2022-08-16T00:00:11;6.35;;;4.32;;
35022;SDS011;21214;44.912;8.204;2022-08-16T00:02:38;6.22;;;4.15;;
35022;SDS011;21214;44.912;8.204;2022-08-16T00:05:05;9.35;;;4.28;;
35022;SDS011;21214;44.912;8.204;2022-08-16T00:07:32;7.57;;;4.60;;
35022;SDS011;21214;44.912;8.204;2022-08-16T00:09:57;5.05;;;4.57;;
35022;SDS011;21214;44.912;8.204;2022-08-16T00:12:24;4.85;;;4.40;;
35022;SDS011;21214;44.912;8.204;2022-08-16T00:14:52;7.35;;;4.25;;
35022;SDS011;21214;44.912;8.204;2022-08-16T00:17:19;5.55;;;4.47;;
35022;SDS011;21214;44.912;8.204;2022-08-16T00:19:44;7.65;;;4.70;;
35022;SDS011;21214;44.912;8.204;2022-08-16T00:22:10;5.13;;;4.50;;
35022;SDS011;21214;44.912;8.204;2022-08-16T00:24:36;5.10;;;4.30;;
35022;SDS011;21214;44.912;8.204;2022-08-16T00:27:01;7.72;;;5.15;;
35022;SDS011;21214;44.912;8.204;2022-08-16T00:29:28;5.75;;;4.90;;
35022;SDS011;21214;44.912;8.204;2022-08-16T00:31:55;7.80;;;4.68;;
35022;SDS011;21214;44.912;8.204;2022-08-16T00:34:22;5.75;;;4.70;;
35022;SDS011;21214;44.912;8.204;2022-08-16T00:36:49;4.82;;;4.32;;
35022;SDS011;21214;44.912;8.204;2022-08-16T00:39:15;5.53;;;4.45;;
35022;SDS011;21214;44.912;8.204;2022-08-16T00:41:42;4.72;;;4.18;;
35022;SDS011;21214;44.912;8.204;2022-08-16T00:44:09;5.50;;;5.10;;
35022;SDS011;21214;44.912;8.204;2022-08-16T00:47:18;7.00;;;4.63;;
35022;SDS011;21214;44.912;8.204;2022-08-16T00:49:33;5.57;;;5.18;;
35022;SDS011;21214;44.912;8.204;2022-08-16T00:52:00;4.97;;;4.35;;
35022;SDS011;21214;44.912;8.204;2022-08-16T00:54:27;6.55;;;5.20;;
35022;SDS011;21214;44.912;8.204;2022-08-16T00:56:54;5.30;;;4.80;;
35022;SDS011;21214;44.912;8.204;2022-08-16T00:59:22;4.70;;;4.32;;
35022;SDS011;21214;44.912;8.204;2022-08-16T01:01:50;5.40;;;4.93;;
35022;SDS011;21214;44.912;8.204;2022-08-16T01:04:17;4.30;;;3.90;;
35022;SDS011;21214;44.912;8.204;2022-08-16T01:06:46;6.13;;;4.50;;
35022;SDS011;21214;44.912;8.204;2022-08-16T01:09:12;7.78;;;4.85;;
35022;SDS011;21214;44.912;8.204;2022-08-16T01:11:38;4.93;;;4.07;;
35022;SDS011;21214;44.912;8.204;2022-08-16T01:14:09;8.73;;;4.35;;
35022;SDS011;21214;44.912;8.204;2022-08-16T01:16:39;6.68;;;4.50;;
35022;SDS011;21214;44.912;8.204;2022-08-16T01:22:01;4.85;;;4.32;;
35022;SDS011;21214;44.912;8.204;2022-08-16T01:27:09;7.80;;;4.97;;
35022;SDS011;21214;44.912;8.204;2022-08-16T01:29:46;5.82;;;4.90;;
35022;SDS011;21214;44.912;8.204;2022-08-16T01:32:17;6.10;;;4.82;;
35022;SDS011;21214;44.912;8.204;2022-08-16T01:34:42;6.75;;;5.05;;
35022;SDS011;21214;44.912;8.204;2022-08-16T01:37:09;5.88;;;5.38;;
35022;SDS011;21214;44.912;8.204;2022-08-16T01:39:36;7.03;;;4.70;;
35022;SDS011;21214;44.912;8.204;2022-08-16T01:42:03;7.05;;;5.28;;
35022;SDS011;21214;44.912;8.204;2022-08-16T01:44:31;5.57;;;4.80;;
35022;SDS011;21214;44.912;8.204;2022-08-16T01:46:57;5.50;;;5.00;;
35022;SDS011;21214;44.912;8.204;2022-08-16T01:49:25;11.80;;;6.00;;
35022;SDS011;21214;44.912;8.204;2022-08-16T01:51:59;6.00;;;5.38;;
35022;SDS011;21214;44.912;8.204;2022-08-16T01:54:40;6.03;;;4.32;;
35022;SDS011;21214;44.912;8.204;2022-08-16T01:57:07;5.22;;;4.80;;
35022;SDS011;21214;44.912;8.204;2022-08-16T01:59:36;6.45;;;5.85;;
35022;SDS011;21214;44.912;8.204;2022-08-16T02:02:02;5.43;;;4.90;;
35022;SDS011;21214;44.912;8.204;2022-08-16T02:04:31;5.38;;;4.55;;
35022;SDS011;21214;44.912;8.204;2022-08-16T02:06:59;18.23;;;5.38;;
35022;SDS011;21214;44.912;8.204;2022-08-16T02:09:28;7.20;;;5.20;;
35022;SDS011;21214;44.912;8.204;2022-08-16T02:11:55;9.00;;;5.45;;
35022;SDS011;21214;44.912;8.204;2022-08-16T02:14:25;6.53;;;5.15;;
35022;SDS011;21214;44.912;8.204;2022-08-16T02:16:56;5.80;;;5.28;;
35022;SDS011;21214;44.912;8.204;2022-08-16T02:19:24;5.53;;;5.03;;
35022;SDS011;21214;44.912;8.204;2022-08-16T02:21:52;6.32;;;5.25;;
35022;SDS011;21214;44.912;8.204;2022-08-16T02:24:19;7.78;;;5.30;;
35022;SDS011;21214;44.912;8.204;2022-08-16T02:26:47;6.57;;;5.03;;
35022;SDS011;21214;44.912;8.204;2022-08-16T02:29:14;7.35;;;4.80;;
35022;SDS011;21214;44.912;8.204;2022-08-16T02:31:43;4.90;;;4.53;;
35022;SDS011;21214;44.912;8.204;2022-08-16T02:34:09;6.57;;;4.85;;
35022;SDS011;21214;44.912;8.204;2022-08-16T02:36:37;5.88;;;4.90;;
35022;SDS011;21214;44.912;8.204;2022-08-16T02:39:04;5.07;;;4.57;;
35022;SDS011;21214;44.912;8.204;2022-08-16T02:41:32;5.45;;;4.95;;
35022;SDS011;21214;44.912;8.204;2022-08-16T02:44:01;9.30;;;5.40;;
35022;SDS011;21214;44.912;8.204;2022-08-16T02:46:28;9.32;;;5.28;;
35022;SDS011;21214;44.912;8.204;2022-08-16T02:48:54;6.60;;;5.70;;
35022;SDS011;21214;44.912;8.204;2022-08-16T02:51:19;5.68;;;5.25;;
35022;SDS011;21214;44.912;8.204;2022-08-16T02:53:46;7.30;;;6.55;;
35022;SDS011;21214;44.912;8.204;2022-08-16T02:56:14;5.47;;;4.78;;
35022;SDS011;21214;44.912;8.204;2022-08-16T02:58:43;6.63;;;5.53;;
35022;SDS011;21214;44.912;8.204;2022-08-16T03:01:11;8.80;;;5.47;;
35022;SDS011;21214;44.912;8.204;2022-08-16T03:03:38;7.53;;;4.78;;
35022;SDS011;21214;44.912;8.204;2022-08-16T03:06:04;8.20;;;5.05;;
35022;SDS011;21214;44.912;8.204;2022-08-16T03:08:31;9.73;;;5.22;;
35022;SDS011;21214;44.912;8.204;2022-08-16T03:10:57;5.20;;;4.80;;
35022;SDS011;21214;44.912;8.204;2022-08-16T03:13:23;5.28;;;4.78;;
35022;SDS011;21214;44.912;8.204;2022-08-16T03:15:49;5.93;;;4.63;;
35022;SDS011;21214;44.912;8.204;2022-08-16T03:18:15;4.93;;;4.35;;
35022;SDS011;21214;44.912;8.204;2022-08-16T03:20:41;5.55;;;5.00;;
35022;SDS011;21214;44.912;8.204;2022-08-16T03:23:08;5.68;;;4.93;;
35022;SDS011;21214;44.912;8.204;2022-08-16T03:25:35;6.68;;;4.97;;
35022;SDS011;21214;44.912;8.204;2022-08-16T03:28:02;7.75;;;5.53;;
35022;SDS011;21214;44.912;8.204;2022-08-16T03:30:29;5.50;;;5.00;;
35022;SDS011;21214;44.912;8.204;2022-08-16T03:33:00;10.10;;;5.40;;
35022;SDS011;21214;44.912;8.204;2022-08-16T03:35:33;5.60;;;5.10;;
35022;SDS011;21214;44.912;8.204;2022-08-16T03:38:08;6.20;;;5.30;;
35022;SDS011;21214;44.912;8.204;2022-08-16T03:40:42;5.40;;;4.93;;
35022;SDS011;21214;44.912;8.204;2022-08-16T03:43:09;7.55;;;4.95;;
35022;SDS011;21214;44.912;8.204;2022-08-16T03:45:37;6.57;;;5.47;;
35022;SDS011;21214;44.912;8.204;2022-08-16T03:48:05;6.22;;;5.55;;
35022;SDS011;21214;44.912;8.204;2022-08-16T03:50:32;5.97;;;5.13;;
35022;SDS011;21214;44.912;8.204;2022-08-16T03:52:59;6.93;;;5.13;;
35022;SDS011;21214;44.912;8.204;2022-08-16T03:55:26;6.93;;;6.20;;
35022;SDS011;21214;44.912;8.204;2022-08-16T03:57:52;7.72;;;5.78;;
35022;SDS011;21214;44.912;8.204;2022-08-16T04:00:23;7.13;;;5.50;;
35022;SDS011;21214;44.912;8.204;2022-08-16T04:02:52;6.28;;;5.53;;
35022;SDS011;21214;44.912;8.204;2022-08-16T04:05:23;6.00;;;5.50;;
35022;SDS011;21214;44.912;8.204;2022-08-16T04:07:49;7.55;;;5.20;;
35022;SDS011;21214;44.912;8.204;2022-08-16T04:10:16;7.55;;;6.13;;
35022;SDS011;21214;44.912;8.204;2022-08-16T04:12:43;6.53;;;6.03;;
35022;SDS011;21214;44.912;8.204;2022-08-16T04:15:10;7.30;;;6.13;;
35022;SDS011;21214;44.912;8.204;2022-08-16T04:17:43;7.10;;;6.47;;
35022;SDS011;21214;44.912;8.204;2022-08-16T04:20:10;6.68;;;5.88;;
35022;SDS011;21214;44.912;8.204;2022-08-16T04:22:38;7.70;;;6.90;;
35022;SDS011;21214;44.912;8.204;2022-08-16T04:25:06;7.53;;;6.80;;
35022;SDS011;21214;44.912;8.204;2022-08-16T04:27:34;12.80;;;6.32;;
35022;SDS011;21214;44.912;8.204;2022-08-16T04:30:01;6.60;;;6.00;;
35022;SDS011;21214;44.912;8.204;2022-08-16T04:32:36;9.77;;;6.65;;
35022;SDS011;21214;44.912;8.204;2022-08-16T04:35:06;10.00;;;6.13;;
35022;SDS011;21214;44.912;8.204;2022-08-16T04:37:35;7.28;;;6.68;;
35022;SDS011;21214;44.912;8.204;2022-08-16T04:40:11;7.45;;;6.53;;
35022;SDS011;21214;44.912;8.204;2022-08-16T04:42:38;7.10;;;6.35;;
35022;SDS011;21214;44.912;8.204;2022-08-16T04:45:07;8.48;;;5.97;;
35022;SDS011;21214;44.912;8.204;2022-08-16T04:47:35;15.50;;;6.45;;
35022;SDS011;21214;44.912;8.204;2022-08-16T04:50:09;7.80;;;6.60;;
35022;SDS011;21214;44.912;8.204;2022-08-16T04:52:57;10.93;;;6.68;;
35022;SDS011;21214;44.912;8.204;2022-08-16T04:55:25;7.30;;;6.60;;
35022;SDS011;21214;44.912;8.204;2022-08-16T04:57:52;6.95;;;6.22;;
35022;SDS011;21214;44.912;8.204;2022-08-16T05:00:22;6.68;;;5.70;;
35022;SDS011;21214;44.912;8.204;2022-08-16T05:02:53;8.13;;;6.53;;
35022;SDS011;21214;44.912;8.204;2022-08-16T05:05:20;10.70;;;7.00;;
35022;SDS011;21214;44.912;8.204;2022-08-16T05:07:47;9.82;;;6.70;;
35022;SDS011;21214;44.912;8.204;2022-08-16T05:10:14;8.65;;;5.82;;
35022;SDS011;21214;44.912;8.204;2022-08-16T05:12:41;8.27;;;6.43;;
35022;SDS011;21214;44.912;8.204;2022-08-16T05:15:07;5.85;;;5.05;;
35022;SDS011;21214;44.912;8.204;2022-08-16T05:17:35;8.25;;;6.72;;
35022;SDS011;21214;44.912;8.204;2022-08-16T05:20:06;9.07;;;5.93;;
35022;SDS011;21214;44.912;8.204;2022-08-16T05:22:38;7.78;;;6.20;;
35022;SDS011;21214;44.912;8.204;2022-08-16T05:25:06;9.90;;;6.88;;
35022;SDS011;21214;44.912;8.204;2022-08-16T05:27:34;6.70;;;6.00;;
35022;SDS011;21214;44.912;8.204;2022-08-16T05:30:00;9.40;;;6.55;;
35022;SDS011;21214;44.912;8.204;2022-08-16T05:32:28;7.15;;;6.30;;
35022;SDS011;21214;44.912;8.204;2022-08-16T05:34:54;7.95;;;5.90;;
35022;SDS011;21214;44.912;8.204;2022-08-16T05:37:19;9.27;;;5.65;;
35022;SDS011;21214;44.912;8.204;2022-08-16T05:39:49;6.78;;;6.18;;
35022;SDS011;21214;44.912;8.204;2022-08-16T05:42:15;6.82;;;6.22;;
35022;SDS011;21214;44.912;8.204;2022-08-16T05:44:41;6.97;;;6.38;;
35022;SDS011;21214;44.912;8.204;2022-08-16T05:47:09;6.35;;;5.40;;
35022;SDS011;21214;44.912;8.204;2022-08-16T05:49:35;6.07;;;5.47;;
35022;SDS011;21214;44.912;8.204;2022-08-16T05:52:00;7.10;;;5.35;;
35022;SDS011;21214;44.912;8.204;2022-08-16T05:54:27;6.78;;;6.18;;
35022;SDS011;21214;44.912;8.204;2022-08-16T05:56:56;8.43;;;6.35;;
35022;SDS011;21214;44.912;8.204;2022-08-16T05:59:23;12.50;;;7.38;;
35022;SDS011;21214;44.912;8.204;2022-08-16T06:01:49;7.47;;;6.88;;
35022;SDS011;21214;44.912;8.204;2022-08-16T06:04:17;9.20;;;6.53;;
35022;SDS011;21214;44.912;8.204;2022-08-16T06:09:14;8.35;;;7.53;;
35022;SDS011;21214;44.912;8.204;2022-08-16T06:11:41;11.65;;;8.05;;
35022;SDS011;21214;44.912;8.204;2022-08-16T06:14:08;9.77;;;7.35;;
35022;SDS011;21214;44.912;8.204;2022-08-16T06:16:37;8.60;;;7.87;;
35022;SDS011;21214;44.912;8.204;2022-08-16T06:19:04;8.63;;;7.50;;
35022;SDS011;21214;44.912;8.204;2022-08-16T06:21:30;7.55;;;6.32;;
35022;SDS011;21214;44.912;8.204;2022-08-16T06:23:59;7.93;;;7.18;;
35022;SDS011;21214;44.912;8.204;2022-08-16T06:26:25;9.88;;;8.10;;
35022;SDS011;21214;44.912;8.204;2022-08-16T06:28:51;8.30;;;7.50;;
35022;SDS011;21214;44.912;8.204;2022-08-16T06:31:23;10.65;;;7.85;;
35022;SDS011;21214;44.912;8.204;2022-08-16T06:33:49;7.97;;;7.20;;
35022;SDS011;21214;44.912;8.204;2022-08-16T06:36:17;8.30;;;6.75;;
35022;SDS011;21214;44.912;8.204;2022-08-16T06:39:05;6.70;;;5.95;;
35022;SDS011;21214;44.912;8.204;2022-08-16T06:41:49;6.00;;;5.43;;
35022;SDS011;21214;44.912;8.204;2022-08-16T06:44:36;5.55;;;5.05;;
35022;SDS011;21214;44.912;8.204;2022-08-16T06:47:04;6.13;;;4.80;;
35022;SDS011;21214;44.912;8.204;2022-08-16T06:49:30;5.60;;;4.40;;
35022;SDS011;21214;44.912;8.204;2022-08-16T06:51:56;6.45;;;4.70;;
35022;SDS011;21214;44.912;8.204;2022-08-16T06:54:25;6.20;;;4.70;;
35022;SDS011;21214;44.912;8.204;2022-08-16T06:56:51;6.10;;;5.50;;
35022;SDS011;21214;44.912;8.204;2022-08-16T06:59:17;5.00;;;4.60;;
35022;SDS011;21214;44.912;8.204;2022-08-16T07:04:14;5.40;;;4.90;;
35022;SDS011;21214;44.912;8.204;2022-08-16T07:06:40;5.40;;;4.90;;
35022;SDS011;21214;44.912;8.204;2022-08-16T07:09:09;4.90;;;4.50;;
35022;SDS011;21214;44.912;8.204;2022-08-16T07:11:42;6.70;;;4.30;;
35022;SDS011;21214;44.912;8.204;2022-08-16T07:14:09;6.82;;;4.65;;
35022;SDS011;21214;44.912;8.204;2022-08-16T07:16:42;5.13;;;4.68;;
35022;SDS011;21214;44.912;8.204;2022-08-16T07:19:08;5.38;;;4.82;;
35022;SDS011;21214;44.912;8.204;2022-08-16T07:21:36;7.25;;;5.10;;
35022;SDS011;21214;44.912;8.204;2022-08-16T07:24:05;5.32;;;4.82;;
35022;SDS011;21214;44.912;8.204;2022-08-16T07:26:34;6.32;;;4.63;;
35022;SDS011;21214;44.912;8.204;2022-08-16T07:29:01;6.35;;;4.88;;
35022;SDS011;21214;44.912;8.204;2022-08-16T07:31:27;6.07;;;5.03;;
35022;SDS011;21214;44.912;8.204;2022-08-16T07:33:52;4.85;;;4.45;;
35022;SDS011;21214;44.912;8.204;2022-08-16T07:36:19;5.72;;;4.82;;
35022;SDS011;21214;44.912;8.204;2022-08-16T07:38:47;5.10;;;4.43;;
35022;SDS011;21214;44.912;8.204;2022-08-16T07:41:13;6.65;;;5.20;;
35022;SDS011;21214;44.912;8.204;2022-08-16T07:46:12;6.57;;;6.03;;
35022;SDS011;21214;44.912;8.204;2022-08-16T07:48:39;6.88;;;6.18;;
35022;SDS011;21214;44.912;8.204;2022-08-16T07:51:05;7.20;;;5.90;;
35022;SDS011;21214;44.912;8.204;2022-08-16T07:53:31;9.23;;;7.88;;
35022;SDS011;21214;44.912;8.204;2022-08-16T07:56:00;9.77;;;7.55;;
35022;SDS011;21214;44.912;8.204;2022-08-16T07:58:32;10.48;;;9.45;;
35022;SDS011;21214;44.912;8.204;2022-08-16T08:00:58;8.32;;;7.50;;
35022;SDS011;21214;44.912;8.204;2022-08-16T08:03:26;9.52;;;8.50;;
35022;SDS011;21214;44.912;8.204;2022-08-16T08:05:54;8.00;;;7.13;;
35022;SDS011;21214;44.912;8.204;2022-08-16T08:08:20;7.93;;;7.22;;
35022;SDS011;21214;44.912;8.204;2022-08-16T08:10:46;8.85;;;7.97;;
35022;SDS011;21214;44.912;8.204;2022-08-16T08:13:12;10.75;;;7.78;;
35022;SDS011;21214;44.912;8.204;2022-08-16T08:15:40;12.32;;;8.27;;
35022;SDS011;21214;44.912;8.204;2022-08-16T08:18:06;8.55;;;7.20;;
35022;SDS011;21214;44.912;8.204;2022-08-16T08:20:34;7.88;;;7.07;;
35022;SDS011;21214;44.912;8.204;2022-08-16T08:23:02;9.10;;;6.63;;
35022;SDS011;21214;44.912;8.204;2022-08-16T08:25:47;7.63;;;6.90;;
35022;SDS011;21214;44.912;8.204;2022-08-16T08:28:14;7.50;;;6.28;;
35022;SDS011;21214;44.912;8.204;2022-08-16T08:30:41;9.50;;;7.20;;
35022;SDS011;21214;44.912;8.204;2022-08-16T08:33:07;10.02;;;6.10;;
35022;SDS011;21214;44.912;8.204;2022-08-16T08:35:38;6.82;;;6.20;;
35022;SDS011;21214;44.912;8.204;2022-08-16T08:38:06;7.30;;;5.53;;
35022;SDS011;21214;44.912;8.204;2022-08-16T08:40:35;5.97;;;5.40;;
35022;SDS011;21214;44.912;8.204;2022-08-16T08:43:03;5.40;;;4.95;;
35022;SDS011;21214;44.912;8.204;2022-08-16T08:45:29;5.35;;;4.85;;
35022;SDS011;21214;44.912;8.204;2022-08-16T08:47:55;5.75;;;5.30;;
35022;SDS011;21214;44.912;8.204;2022-08-16T08:50:23;5.80;;;5.30;;
35022;SDS011;21214;44.912;8.204;2022-08-16T08:52:49;5.05;;;4.55;;
35022;SDS011;21214;44.912;8.204;2022-08-16T08:55:16;6.97;;;5.75;;
35022;SDS011;21214;44.912;8.204;2022-08-16T08:57:44;6.55;;;4.60;;
35022;SDS011;21214;44.912;8.204;2022-08-16T09:00:31;6.60;;;4.80;;
35022;SDS011;21214;44.912;8.204;2022-08-16T09:03:02;6.25;;;5.65;;
35022;SDS011;21214;44.912;8.204;2022-08-16T09:05:28;6.90;;;6.30;;
35022;SDS011;21214;44.912;8.204;2022-08-16T09:07:54;6.03;;;5.53;;
35022;SDS011;21214;44.912;8.204;2022-08-16T09:10:26;6.63;;;5.95;;
35022;SDS011;21214;44.912;8.204;2022-08-16T09:12:53;6.47;;;5.97;;
35022;SDS011;21214;44.912;8.204;2022-08-16T09:15:22;8.38;;;5.60;;
35022;SDS011;21214;44.912;8.204;2022-08-16T09:17:48;5.60;;;5.20;;
35022;SDS011;21214;44.912;8.204;2022-08-16T09:20:17;6.70;;;5.00;;
35022;SDS011;21214;44.912;8.204;2022-08-16T09:22:43;5.80;;;5.30;;
35022;SDS011;21214;44.912;8.204;2022-08-16T09:25:10;5.22;;;4.82;;
35022;SDS011;21214;44.912;8.204;2022-08-16T09:27:36;6.40;;;5.80;;
35022;SDS011;21214;44.912;8.204;2022-08-16T09:30:02;7.10;;;5.30;;
35022;SDS011;21214;44.912;8.204;2022-08-16T09:32:28;7.35;;;5.95;;
35022;SDS011;21214;44.912;8.204;2022-08-16T09:34:54;14.35;;;5.90;;
35022;SDS011;21214;44.912;8.204;2022-08-16T09:37:20;5.82;;;5.20;;
35022;SDS011;21214;44.912;8.204;2022-08-16T09:39:46;6.07;;;5.50;;
35022;SDS011;21214;44.912;8.204;2022-08-16T09:42:11;6.45;;;5.30;;
35022;SDS011;21214;44.912;8.204;2022-08-16T09:44:39;6.43;;;5.82;;
35022;SDS011;21214;44.912;8.204;2022-08-16T09:47:05;7.45;;;5.38;;
35022;SDS011;21214;44.912;8.204;2022-08-16T09:49:31;9.10;;;6.00;;
35022;SDS011;21214;44.912;8.204;2022-08-16T09:51:57;10.30;;;5.43;;
35022;SDS011;21214;44.912;8.204;2022-08-16T09:54:23;8.00;;;5.50;;
35022;SDS011;21214;44.912;8.204;2022-08-16T09:56:51;6.53;;;5.32;;
35022;SDS011;21214;44.912;8.204;2022-08-16T09:59:17;6.60;;;5.97;;
35022;SDS011;21214;44.912;8.204;2022-08-16T10:01:43;8.95;;;6.10;;
35022;SDS011;21214;44.912;8.204;2022-08-16T10:04:12;9.82;;;6.85;;
35022;SDS011;21214;44.912;8.204;2022-08-16T10:06:38;6.70;;;6.03;;
35022;SDS011;21214;44.912;8.204;2022-08-16T10:09:05;6.55;;;5.95;;
35022;SDS011;21214;44.912;8.204;2022-08-16T10:11:33;6.28;;;5.55;;
35022;SDS011;21214;44.912;8.204;2022-08-16T10:14:18;8.73;;;5.07;;
35022;SDS011;21214;44.912;8.204;2022-08-16T10:16:44;5.60;;;5.10;;
35022;SDS011;21214;44.912;8.204;2022-08-16T10:19:10;5.93;;;5.40;;
35022;SDS011;21214;44.912;8.204;2022-08-16T10:21:37;7.75;;;5.57;;
35022;SDS011;21214;44.912;8.204;2022-08-16T10:24:04;6.43;;;5.53;;
35022;SDS011;21214;44.912;8.204;2022-08-16T10:26:31;7.90;;;6.32;;
35022;SDS011;21214;44.912;8.204;2022-08-16T10:28:58;8.27;;;5.38;;
35022;SDS011;21214;44.912;8.204;2022-08-16T10:31:25;6.03;;;5.22;;
35022;SDS011;21214;44.912;8.204;2022-08-16T10:33:51;6.25;;;5.32;;
35022;SDS011;21214;44.912;8.204;2022-08-16T10:36:18;5.97;;;5.40;;
35022;SDS011;21214;44.912;8.204;2022-08-16T10:38:44;5.68;;;5.18;;
35022;SDS011;21214;44.912;8.204;2022-08-16T10:41:10;8.00;;;5.30;;
35022;SDS011;21214;44.912;8.204;2022-08-16T10:43:37;6.68;;;6.10;;
35022;SDS011;21214;44.912;8.204;2022-08-16T10:46:05;6.45;;;5.18;;
35022;SDS011;21214;44.912;8.204;2022-08-16T10:48:32;6.05;;;5.22;;
35022;SDS011;21214;44.912;8.204;2022-08-16T10:50:58;7.53;;;5.40;;
35022;SDS011;21214;44.912;8.204;2022-08-16T10:53:26;5.35;;;4.93;;
35022;SDS011;21214;44.912;8.204;2022-08-16T10:55:52;7.53;;;5.78;;
35022;SDS011;21214;44.912;8.204;2022-08-16T10:58:18;10.63;;;6.00;;
35022;SDS011;21214;44.912;8.204;2022-08-16T11:00:45;6.47;;;5.80;;
35022;SDS011;21214;44.912;8.204;2022-08-16T11:03:11;5.80;;;5.30;;
35022;SDS011;21214;44.912;8.204;2022-08-16T11:05:38;5.88;;;5.25;;
35022;SDS011;21214;44.912;8.204;2022-08-16T11:08:05;6.03;;;5.28;;
35022;SDS011;21214;44.912;8.204;2022-08-16T11:10:36;5.35;;;4.85;;
35022;SDS011;21214;44.912;8.204;2022-08-16T11:13:06;7.53;;;5.60;;
35022;SDS011;21214;44.912;8.204;2022-08-16T11:15:32;8.43;;;5.53;;
35022;SDS011;21214;44.912;8.204;2022-08-16T11:17:59;7.43;;;4.95;;
35022;SDS011;21214;44.912;8.204;2022-08-16T11:20:24;6.18;;;5.35;;
35022;SDS011;21214;44.912;8.204;2022-08-16T11:22:52;5.97;;;5.30;;
35022;SDS011;21214;44.912;8.204;2022-08-16T11:25:21;5.68;;;4.63;;
35022;SDS011;21214;44.912;8.204;2022-08-16T11:27:49;5.35;;;4.65;;
35022;SDS011;21214;44.912;8.204;2022-08-16T11:30:16;5.80;;;4.65;;
35022;SDS011;21214;44.912;8.204;2022-08-16T11:32:42;6.03;;;5.40;;
35022;SDS011;21214;44.912;8.204;2022-08-16T11:35:13;6.15;;;4.80;;
35022;SDS011;21214;44.912;8.204;2022-08-16T11:37:45;6.70;;;4.93;;
35022;SDS011;21214;44.912;8.204;2022-08-16T11:40:14;5.35;;;4.38;;
35022;SDS011;21214;44.912;8.204;2022-08-16T11:42:40;6.10;;;4.85;;
35022;SDS011;21214;44.912;8.204;2022-08-16T11:45:07;9.23;;;4.72;;
35022;SDS011;21214;44.912;8.204;2022-08-16T11:47:33;6.70;;;4.68;;
35022;SDS011;21214;44.912;8.204;2022-08-16T11:49:58;4.57;;;4.25;;
35022;SDS011;21214;44.912;8.204;2022-08-16T11:52:25;6.43;;;4.68;;
35022;SDS011;21214;44.912;8.204;2022-08-16T11:54:50;6.40;;;4.80;;
35022;SDS011;21214;44.912;8.204;2022-08-16T11:57:16;5.38;;;4.88;;
35022;SDS011;21214;44.912;8.204;2022-08-16T11:59:41;4.85;;;4.18;;
35022;SDS011;21214;44.912;8.204;2022-08-16T12:02:07;6.60;;;4.65;;
35022;SDS011;21214;44.912;8.204;2022-08-16T12:04:34;4.70;;;3.90;;
35022;SDS011;21214;44.912;8.204;2022-08-16T12:07:00;4.78;;;4.13;;
35022;SDS011;21214;44.912;8.204;2022-08-16T12:09:30;4.60;;;4.13;;
35022;SDS011;21214;44.912;8.204;2022-08-16T12:11:56;7.05;;;4.30;;
35022;SDS011;21214;44.912;8.204;2022-08-16T12:14:23;4.85;;;3.92;;
35022;SDS011;21214;44.912;8.204;2022-08-16T12:16:50;4.47;;;3.95;;
35022;SDS011;21214;44.912;8.204;2022-08-16T12:19:20;6.70;;;4.18;;
35022;SDS011;21214;44.912;8.204;2022-08-16T12:21:46;4.78;;;4.32;;
35022;SDS011;21214;44.912;8.204;2022-08-16T12:24:12;4.53;;;3.72;;
35022;SDS011;21214;44.912;8.204;2022-08-16T12:26:38;4.45;;;4.07;;
35022;SDS011;21214;44.912;8.204;2022-08-16T12:29:04;6.00;;;4.15;;
35022;SDS011;21214;44.912;8.204;2022-08-16T12:31:30;4.95;;;3.92;;
35022;SDS011;21214;44.912;8.204;2022-08-16T12:33:56;5.47;;;3.60;;
35022;SDS011;21214;44.912;8.204;2022-08-16T12:36:21;4.32;;;3.92;;
35022;SDS011;21214;44.912;8.204;2022-08-16T12:38:48;4.18;;;3.65;;
35022;SDS011;21214;44.912;8.204;2022-08-16T12:41:15;4.22;;;3.90;;
35022;SDS011;21214;44.912;8.204;2022-08-16T12:43:41;3.90;;;3.60;;
35022;SDS011;21214;44.912;8.204;2022-08-16T12:46:07;3.75;;;3.40;;
35022;SDS011;21214;44.912;8.204;2022-08-16T12:48:34;4.38;;;3.92;;
35022;SDS011;21214;44.912;8.204;2022-08-16T12:51:20;3.40;;;3.10;;
35022;SDS011;21214;44.912;8.204;2022-08-16T12:53:48;5.70;;;3.58;;
35022;SDS011;21214;44.912;8.204;2022-08-16T12:56:18;5.18;;;3.35;;
35022;SDS011;21214;44.912;8.204;2022-08-16T12:58:45;6.03;;;3.42;;
35022;SDS011;21214;44.912;8.204;2022-08-16T13:01:15;5.30;;;3.95;;
35022;SDS011;21214;44.912;8.204;2022-08-16T13:03:41;4.10;;;3.50;;
35022;SDS011;21214;44.912;8.204;2022-08-16T13:06:08;5.40;;;3.70;;
35022;SDS011;21214;44.912;8.204;2022-08-16T13:08:34;4.10;;;3.22;;
35022;SDS011;21214;44.912;8.204;2022-08-16T13:11:00;5.35;;;2.70;;
35022;SDS011;21214;44.912;8.204;2022-08-16T13:13:27;6.50;;;3.90;;
35022;SDS011;21214;44.912;8.204;2022-08-16T13:15:54;5.40;;;3.50;;
35022;SDS011;21214;44.912;8.204;2022-08-16T13:18:23;3.50;;;3.03;;
35022;SDS011;21214;44.912;8.204;2022-08-16T13:20:52;3.27;;;3.00;;
35022;SDS011;21214;44.912;8.204;2022-08-16T13:23:18;4.32;;;3.28;;
35022;SDS011;21214;44.912;8.204;2022-08-16T13:25:44;5.05;;;3.25;;
35022;SDS011;21214;44.912;8.204;2022-08-16T13:28:11;7.63;;;3.30;;
35022;SDS011;21214;44.912;8.204;2022-08-16T13:30:40;2.97;;;2.78;;
35022;SDS011;21214;44.912;8.204;2022-08-16T13:33:12;6.10;;;3.53;;
35022;SDS011;21214;44.912;8.204;2022-08-16T13:35:41;3.22;;;2.92;;
35022;SDS011;21214;44.912;8.204;2022-08-16T13:38:08;3.38;;;3.10;;
35022;SDS011;21214;44.912;8.204;2022-08-16T13:40:34;3.65;;;3.15;;
35022;SDS011;21214;44.912;8.204;2022-08-16T13:43:00;3.20;;;2.90;;
35022;SDS011;21214;44.912;8.204;2022-08-16T13:45:26;4.82;;;3.33;;
35022;SDS011;21214;44.912;8.204;2022-08-16T13:47:53;4.75;;;3.20;;
35022;SDS011;21214;44.912;8.204;2022-08-16T13:50:19;5.00;;;3.47;;
35022;SDS011;21214;44.912;8.204;2022-08-16T13:52:45;3.70;;;3.40;;
35022;SDS011;21214;44.912;8.204;2022-08-16T13:55:11;5.22;;;3.42;;
35022;SDS011;21214;44.912;8.204;2022-08-16T13:57:37;3.95;;;3.33;;
35022;SDS011;21214;44.912;8.204;2022-08-16T14:00:04;5.53;;;3.65;;
35022;SDS011;21214;44.912;8.204;2022-08-16T14:02:38;4.93;;;3.60;;
35022;SDS011;21214;44.912;8.204;2022-08-16T14:05:03;4.18;;;3.38;;
35022;SDS011;21214;44.912;8.204;2022-08-16T14:07:29;4.65;;;3.17;;
35022;SDS011;21214;44.912;8.204;2022-08-16T14:09:58;4.57;;;3.00;;
35022;SDS011;21214;44.912;8.204;2022-08-16T14:12:26;4.03;;;3.30;;
35022;SDS011;21214;44.912;8.204;2022-08-16T14:14:56;4.18;;;3.30;;
35022;SDS011;21214;44.912;8.204;2022-08-16T14:17:23;5.07;;;3.33;;
35022;SDS011;21214;44.912;8.204;2022-08-16T14:19:49;4.00;;;3.35;;
35022;SDS011;21214;44.912;8.204;2022-08-16T14:22:23;3.53;;;3.22;;
35022;SDS011;21214;44.912;8.204;2022-08-16T14:24:57;4.10;;;3.08;;
35022;SDS011;21214;44.912;8.204;2022-08-16T14:27:24;5.03;;;3.35;;
35022;SDS011;21214;44.912;8.204;2022-08-16T14:29:53;3.50;;;3.17;;
35022;SDS011;21214;44.912;8.204;2022-08-16T14:32:21;3.55;;;3.20;;
35022;SDS011;21214;44.912;8.204;2022-08-16T14:34:49;5.30;;;3.58;;
35022;SDS011;21214;44.912;8.204;2022-08-16T14:37:15;3.88;;;3.00;;
35022;SDS011;21214;44.912;8.204;2022-08-16T14:39:41;3.78;;;3.40;;
35022;SDS011;21214;44.912;8.204;2022-08-16T14:42:10;3.30;;;3.00;;
35022;SDS011;21214;44.912;8.204;2022-08-16T14:44:38;3.92;;;3.13;;
35022;SDS011;21214;44.912;8.204;2022-08-16T14:47:04;4.03;;;3.55;;
35022;SDS011;21214;44.912;8.204;2022-08-16T14:49:31;4.88;;;3.22;;
35022;SDS011;21214;44.912;8.204;2022-08-16T14:52:20;3.25;;;2.80;;
35022;SDS011;21214;44.912;8.204;2022-08-16T14:54:46;4.63;;;2.95;;
35022;SDS011;21214;44.912;8.204;2022-08-16T14:57:13;4.72;;;3.40;;
35022;SDS011;21214;44.912;8.204;2022-08-16T14:59:40;4.28;;;3.90;;
35022;SDS011;21214;44.912;8.204;2022-08-16T15:02:10;3.78;;;3.45;;
35022;SDS011;21214;44.912;8.204;2022-08-16T15:04:39;4.05;;;3.15;;